sensor_id;sensor_type;location;lat;lon;timestamp;pressure;altitude;pressure_sealevel;temperature;humidity
21300;BME280;10809;49.476;11.016;2023-04-10T00:01:37;99047.59;;;8.15;45.08
21300;BME280;10809;49.476;11.016;2023-04-10T00:04:07;99052.06;;;8.13;44.93
21300;BME280;10809;49.476;11.016;2023-04-10T00:06:38;99053.06;;;8.09;44.96
21300;BME280;10809;49.476;11.016;2023-04-10T00:09:10;99052.34;;;8.06;44.85
21300;BME280;10809;49.476;11.016;2023-04-10T00:11:47;99053.31;;;8.02;44.98
21300;BME280;10809;49.476;11.016;2023-04-10T00:14:17;99046.44;;;7.98;44.66
21300;BME280;10809;49.476;11.016;2023-04-10T00:16:55;99051.00;;;7.93;45.07
21300;BME280;10809;49.476;11.016;2023-04-10T00:19:25;99048.41;;;7.91;45.14
21300;BME280;10809;49.476;11.016;2023-04-10T00:21:59;99041.53;;;7.87;45.30
21300;BME280;10809;49.476;11.016;2023-04-10T00:24:29;99050.41;;;7.85;45.29
21300;BME280;10809;49.476;11.016;2023-04-10T00:27:00;99045.28;;;7.80;45.47
21300;BME280;10809;49.476;11.016;2023-04-10T00:29:30;99040.09;;;7.77;45.08
21300;BME280;10809;49.476;11.016;2023-04-10T00:32:04;99026.16;;;7.73;45.51
21300;BME280;10809;49.476;11.016;2023-04-10T00:34:34;99038.56;;;7.70;45.56
21300;BME280;10809;49.476;11.016;2023-04-10T00:37:11;99028.22;;;7.64;45.50
21300;BME280;10809;49.476;11.016;2023-04-10T00:39:41;99021.34;;;7.60;45.60
21300;BME280;10809;49.476;11.016;2023-04-10T00:42:12;99012.66;;;7.56;45.63
21300;BME280;10809;49.476;11.016;2023-04-10T00:44:45;99016.31;;;7.52;45.75
21300;BME280;10809;49.476;11.016;2023-04-10T00:47:16;99012.03;;;7.48;45.68
21300;BME280;10809;49.476;11.016;2023-04-10T00:49:46;99017.41;;;7.45;45.65
21300;BME280;10809;49.476;11.016;2023-04-10T00:52:20;99020.16;;;7.42;46.08
21300;BME280;10809;49.476;11.016;2023-04-10T00:54:51;99020.25;;;7.39;46.06
21300;BME280;10809;49.476;11.016;2023-04-10T00:57:21;99015.06;;;7.36;46.27
21300;BME280;10809;49.476;11.016;2023-04-10T00:59:52;99023.91;;;7.35;46.16
21300;BME280;10809;49.476;11.016;2023-04-10T01:02:23;99022.28;;;7.31;46.06
21300;BME280;10809;49.476;11.016;2023-04-10T01:04:54;99022.38;;;7.28;46.18
21300;BME280;10809;49.476;11.016;2023-04-10T01:07:40;99024.22;;;7.25;46.05
21300;BME280;10809;49.476;11.016;2023-04-10T01:10:27;99022.47;;;7.24;45.95
21300;BME280;10809;49.476;11.016;2023-04-10T01:13:33;99023.50;;;7.20;46.03
21300;BME280;10809;49.476;11.016;2023-04-10T01:16:10;99028.81;;;7.18;46.18
21300;BME280;10809;49.476;11.016;2023-04-10T01:18:49;99022.75;;;7.15;46.27
21300;BME280;10809;49.476;11.016;2023-04-10T01:21:23;99021.16;;;7.11;46.25
21300;BME280;10809;49.476;11.016;2023-04-10T01:27:57;99016.94;;;7.04;45.85
21300;BME280;10809;49.476;11.016;2023-04-10T01:30:32;99014.47;;;6.99;46.04
21300;BME280;10809;49.476;11.016;2023-04-10T01:33:04;99014.56;;;6.96;46.18
21300;BME280;10809;49.476;11.016;2023-04-10T01:35:43;99020.78;;;6.92;46.42
21300;BME280;10809;49.476;11.016;2023-04-10T01:38:18;99020.88;;;6.89;46.77
21300;BME280;10809;49.476;11.016;2023-04-10T01:40:51;99021.84;;;6.87;46.71
21300;BME280;10809;49.476;11.016;2023-04-10T01:43:38;99028.97;;;6.83;46.27
21300;BME280;10809;49.476;11.016;2023-04-10T01:46:10;99016.81;;;6.79;46.52
21300;BME280;10809;49.476;11.016;2023-04-10T01:48:42;99022.16;;;6.76;46.66
21300;BME280;10809;49.476;11.016;2023-04-10T01:51:16;99025.72;;;6.74;46.60
21300;BME280;10809;49.476;11.016;2023-04-10T01:53:53;99034.63;;;6.70;46.56
21300;BME280;10809;49.476;11.016;2023-04-10T01:56:28;99027.69;;;6.67;46.85
21300;BME280;10809;49.476;11.016;2023-04-10T01:58:59;99030.41;;;6.64;46.78
21300;BME280;10809;49.476;11.016;2023-04-10T02:01:29;99029.63;;;6.61;47.13
21300;BME280;10809;49.476;11.016;2023-04-10T02:04:06;99019.16;;;6.59;46.87
21300;BME280;10809;49.476;11.016;2023-04-10T02:09:47;99029.88;;;6.52;46.77
21300;BME280;10809;49.476;11.016;2023-04-10T02:12:43;99030.00;;;6.47;46.84
21300;BME280;10809;49.476;11.016;2023-04-10T02:15:21;99024.78;;;6.46;46.90
21300;BME280;10809;49.476;11.016;2023-04-10T02:17:53;99029.25;;;6.42;47.13
21300;BME280;10809;49.476;11.016;2023-04-10T02:20:25;99026.75;;;6.38;47.46
21300;BME280;10809;49.476;11.016;2023-04-10T02:22:57;99021.59;;;6.35;47.56
21300;BME280;10809;49.476;11.016;2023-04-10T02:25:32;99025.13;;;6.34;47.19
21300;BME280;10809;49.476;11.016;2023-04-10T02:28:09;99025.25;;;6.29;47.32
21300;BME280;10809;49.476;11.016;2023-04-10T02:30:39;99027.06;;;6.27;47.72
21300;BME280;10809;49.476;11.016;2023-04-10T02:33:10;99027.97;;;6.26;47.41
21300;BME280;10809;49.476;11.016;2023-04-10T02:35:40;99028.06;;;6.23;47.37
21300;BME280;10809;49.476;11.016;2023-04-10T02:38:17;99035.19;;;6.18;47.19
21300;BME280;10809;49.476;11.016;2023-04-10T02:40:48;99038.72;;;6.17;47.65
21300;BME280;10809;49.476;11.016;2023-04-10T02:43:26;99036.19;;;6.14;47.69
21300;BME280;10809;49.476;11.016;2023-04-10T02:45:57;99045.88;;;6.12;47.67
21300;BME280;10809;49.476;11.016;2023-04-10T02:48:34;99045.94;;;6.09;47.56
21300;BME280;10809;49.476;11.016;2023-04-10T02:51:06;99029.38;;;6.05;47.75
21300;BME280;10809;49.476;11.016;2023-04-10T02:53:36;99039.94;;;6.04;47.97
21300;BME280;10809;49.476;11.016;2023-04-10T02:56:07;99035.63;;;6.01;47.61
21300;BME280;10809;49.476;11.016;2023-04-10T02:58:38;99030.44;;;5.98;48.16
21300;BME280;10809;49.476;11.016;2023-04-10T03:01:09;99037.50;;;5.96;47.93
21300;BME280;10809;49.476;11.016;2023-04-10T03:03:43;99033.25;;;5.92;48.05
21300;BME280;10809;49.476;11.016;2023-04-10T03:06:14;99035.03;;;5.90;48.04
21300;BME280;10809;49.476;11.016;2023-04-10T03:08:50;99035.13;;;5.87;47.80
21300;BME280;10809;49.476;11.016;2023-04-10T03:11:24;99021.22;;;5.84;47.99
21300;BME280;10809;49.476;11.016;2023-04-10T03:13:54;99025.63;;;5.82;48.07
21300;BME280;10809;49.476;11.016;2023-04-10T03:16:27;99026.59;;;5.79;48.15
21300;BME280;10809;49.476;11.016;2023-04-10T03:19:00;99024.03;;;5.76;47.90
21300;BME280;10809;49.476;11.016;2023-04-10T03:21:31;99027.56;;;5.74;48.15
21300;BME280;10809;49.476;11.016;2023-04-10T03:24:01;99023.22;;;5.73;48.19
21300;BME280;10809;49.476;11.016;2023-04-10T03:26:35;99032.91;;;5.71;48.44
21300;BME280;10809;49.476;11.016;2023-04-10T03:29:05;99025.06;;;5.69;48.33
21300;BME280;10809;49.476;11.016;2023-04-10T03:31:37;99019.88;;;5.66;48.54
21300;BME280;10809;49.476;11.016;2023-04-10T03:34:08;99020.00;;;5.62;48.38
21300;BME280;10809;49.476;11.016;2023-04-10T03:36:38;99026.16;;;5.61;48.06
21300;BME280;10809;49.476;11.016;2023-04-10T03:39:09;99017.47;;;5.57;48.39
21300;BME280;10809;49.476;11.016;2023-04-10T03:41:53;99026.31;;;5.55;48.24
21300;BME280;10809;49.476;11.016;2023-04-10T03:44:27;99026.38;;;5.52;48.68
21300;BME280;10809;49.476;11.016;2023-04-10T03:47:03;99020.34;;;5.48;48.26
21300;BME280;10809;49.476;11.016;2023-04-10T03:49:38;99023.03;;;5.45;48.30
21300;BME280;10809;49.476;11.016;2023-04-10T03:52:13;99019.56;;;5.43;48.42
21300;BME280;10809;49.476;11.016;2023-04-10T03:54:44;99019.59;;;5.42;48.57
21300;BME280;10809;49.476;11.016;2023-04-10T03:57:32;99016.25;;;5.37;48.56
21300;BME280;10809;49.476;11.016;2023-04-10T04:00:07;99013.66;;;5.35;48.75
21300;BME280;10809;49.476;11.016;2023-04-10T04:02:50;99012.81;;;5.33;48.64
21300;BME280;10809;49.476;11.016;2023-04-10T04:05:39;99016.41;;;5.31;48.75
21300;BME280;10809;49.476;11.016;2023-04-10T04:08:34;99020.81;;;5.29;48.65
21300;BME280;10809;49.476;11.016;2023-04-10T04:11:24;99016.50;;;5.26;48.87
21300;BME280;10809;49.476;11.016;2023-04-10T04:14:15;99013.91;;;5.25;48.78
21300;BME280;10809;49.476;11.016;2023-04-10T04:17:05;99020.06;;;5.22;48.99
21300;BME280;10809;49.476;11.016;2023-04-10T04:20:05;99008.72;;;5.19;48.88
21300;BME280;10809;49.476;11.016;2023-04-10T04:22:45;99014.03;;;5.17;48.80
21300;BME280;10809;49.476;11.016;2023-04-10T04:25:34;99017.59;;;5.15;49.10
21300;BME280;10809;49.476;11.016;2023-04-10T04:28:34;99022.00;;;5.13;48.95
21300;BME280;10809;49.476;11.016;2023-04-10T04:31:30;99022.06;;;5.10;49.20
21300;BME280;10809;49.476;11.016;2023-04-10T04:34:20;99020.34;;;5.09;49.38
21300;BME280;10809;49.476;11.016;2023-04-10T04:36:50;99025.66;;;5.06;49.13
21300;BME280;10809;49.476;11.016;2023-04-10T04:39:47;99036.16;;;5.06;49.34
21300;BME280;10809;49.476;11.016;2023-04-10T04:42:47;99031.88;;;5.03;49.22
21300;BME280;10809;49.476;11.016;2023-04-10T04:45:26;99034.53;;;5.02;49.10
21300;BME280;10809;49.476;11.016;2023-04-10T04:48:14;99033.66;;;5.01;49.28
21300;BME280;10809;49.476;11.016;2023-04-10T04:51:23;99036.31;;;5.00;49.11
21300;BME280;10809;49.476;11.016;2023-04-10T04:54:06;99040.72;;;4.98;49.52
21300;BME280;10809;49.476;11.016;2023-04-10T04:57:05;99045.13;;;4.97;49.58
21300;BME280;10809;49.476;11.016;2023-04-10T04:59:55;99055.66;;;4.96;49.41
21300;BME280;10809;49.476;11.016;2023-04-10T05:02:51;99053.91;;;4.95;49.59
21300;BME280;10809;49.476;11.016;2023-04-10T05:05:44;99054.78;;;4.95;49.86
21300;BME280;10809;49.476;11.016;2023-04-10T05:08:33;99054.81;;;4.94;49.62
21300;BME280;10809;49.476;11.016;2023-04-10T05:11:28;99058.31;;;4.94;49.88
21300;BME280;10809;49.476;11.016;2023-04-10T05:14:19;99060.97;;;4.93;50.00
21300;BME280;10809;49.476;11.016;2023-04-10T05:17:02;99060.97;;;4.93;49.95
21300;BME280;10809;49.476;11.016;2023-04-10T05:19:45;99062.69;;;4.94;49.92
21300;BME280;10809;49.476;11.016;2023-04-10T05:22:44;99064.41;;;4.95;50.00
21300;BME280;10809;49.476;11.016;2023-04-10T05:25:39;99068.72;;;4.97;50.21
21300;BME280;10809;49.476;11.016;2023-04-10T05:28:23;99053.84;;;4.98;50.40
21300;BME280;10809;49.476;11.016;2023-04-10T05:31:17;99050.31;;;5.00;50.40
21300;BME280;10809;49.476;11.016;2023-04-10T05:34:15;99046.75;;;5.03;50.45
21300;BME280;10809;49.476;11.016;2023-04-10T05:37:09;99041.41;;;5.06;50.46
21300;BME280;10809;49.476;11.016;2023-04-10T05:40:01;99031.72;;;5.09;50.62
21300;BME280;10809;49.476;11.016;2023-04-10T05:42:53;99042.13;;;5.14;50.47
21300;BME280;10809;49.476;11.016;2023-04-10T05:46:01;99038.53;;;5.18;50.55
21300;BME280;10809;49.476;11.016;2023-04-10T05:48:51;99035.81;;;5.21;50.77
21300;BME280;10809;49.476;11.016;2023-04-10T05:51:42;99045.41;;;5.25;50.72
21300;BME280;10809;49.476;11.016;2023-04-10T05:54:26;99050.56;;;5.29;50.97
21300;BME280;10809;49.476;11.016;2023-04-10T05:57:21;99046.94;;;5.33;50.85
21300;BME280;10809;49.476;11.016;2023-04-10T06:00:16;99044.16;;;5.41;50.54
21300;BME280;10809;49.476;11.016;2023-04-10T06:03:16;99044.00;;;5.47;51.01
21300;BME280;10809;49.476;11.016;2023-04-10T06:06:06;99048.28;;;5.51;50.91
21300;BME280;10809;49.476;11.016;2023-04-10T06:08:37;99040.28;;;5.55;51.47
21300;BME280;10809;49.476;11.016;2023-04-10T06:11:17;99043.69;;;5.60;51.33
21300;BME280;10809;49.476;11.016;2023-04-10T06:13:54;99047.03;;;5.67;51.52
21300;BME280;10809;49.476;11.016;2023-04-10T06:16:32;99040.72;;;5.74;51.66
21300;BME280;10809;49.476;11.016;2023-04-10T06:19:11;99035.25;;;5.81;51.27
21300;BME280;10809;49.476;11.016;2023-04-10T06:21:45;99038.56;;;5.89;51.47
21300;BME280;10809;49.476;11.016;2023-04-10T06:24:16;99035.75;;;5.97;51.97
21300;BME280;10809;49.476;11.016;2023-04-10T06:26:50;99039.06;;;6.05;51.72
21300;BME280;10809;49.476;11.016;2023-04-10T06:29:22;99033.59;;;6.13;52.02
21300;BME280;10809;49.476;11.016;2023-04-10T06:31:52;99032.47;;;6.21;51.80
21300;BME280;10809;49.476;11.016;2023-04-10T06:34:23;99027.88;;;6.29;51.86
21300;BME280;10809;49.476;11.016;2023-04-10T06:37:05;99029.34;;;6.39;51.90
21300;BME280;10809;49.476;11.016;2023-04-10T06:39:36;99026.47;;;6.48;52.64
21300;BME280;10809;49.476;11.016;2023-04-10T06:42:06;99026.69;;;6.71;53.51
21300;BME280;10809;49.476;11.016;2023-04-10T06:44:46;99026.50;;;7.08;54.05
21300;BME280;10809;49.476;11.016;2023-04-10T06:47:17;99023.34;;;7.52;54.62
21300;BME280;10809;49.476;11.016;2023-04-10T06:49:47;99026.84;;;8.05;54.90
21300;BME280;10809;49.476;11.016;2023-04-10T06:52:21;99022.13;;;8.65;55.05
21300;BME280;10809;49.476;11.016;2023-04-10T06:54:52;99016.34;;;9.23;54.35
21300;BME280;10809;49.476;11.016;2023-04-10T06:57:22;99016.75;;;9.79;54.10
21300;BME280;10809;49.476;11.016;2023-04-10T06:59:53;99022.31;;;10.34;53.40
21300;BME280;10809;49.476;11.016;2023-04-10T07:02:23;99017.34;;;10.85;52.34
21300;BME280;10809;49.476;11.016;2023-04-10T07:04:54;99010.66;;;11.34;52.03
21300;BME280;10809;49.476;11.016;2023-04-10T07:07:26;99017.09;;;11.83;51.64
21300;BME280;10809;49.476;11.016;2023-04-10T07:10:05;99006.78;;;12.29;51.06
21300;BME280;10809;49.476;11.016;2023-04-10T07:12:39;99009.88;;;12.71;50.11
21300;BME280;10809;49.476;11.016;2023-04-10T07:15:10;99004.31;;;13.09;49.53
21300;BME280;10809;49.476;11.016;2023-04-10T07:17:42;98992.63;;;13.44;48.72
21300;BME280;10809;49.476;11.016;2023-04-10T07:20:18;98996.13;;;13.75;48.43
21300;BME280;10809;49.476;11.016;2023-04-10T07:22:49;98996.31;;;14.02;47.75
21300;BME280;10809;49.476;11.016;2023-04-10T07:25:20;98983.63;;;14.21;46.78
21300;BME280;10809;49.476;11.016;2023-04-10T07:27:54;98992.31;;;14.38;46.80
21300;BME280;10809;49.476;11.016;2023-04-10T07:30:24;98991.59;;;14.50;45.92
21300;BME280;10809;49.476;11.016;2023-04-10T07:32:55;98984.78;;;14.60;45.68
21300;BME280;10809;49.476;11.016;2023-04-10T07:35:26;98982.41;;;14.70;45.73
21300;BME280;10809;49.476;11.016;2023-04-10T07:37:57;98977.25;;;14.81;45.81
21300;BME280;10809;49.476;11.016;2023-04-10T07:40:27;98975.53;;;14.94;45.56
21300;BME280;10809;49.476;11.016;2023-04-10T07:42:57;98969.25;;;15.09;45.36
21300;BME280;10809;49.476;11.016;2023-04-10T07:45:28;98970.84;;;15.26;45.08
21300;BME280;10809;49.476;11.016;2023-04-10T07:47:58;98967.97;;;15.43;45.34
21300;BME280;10809;49.476;11.016;2023-04-10T07:50:32;98959.84;;;15.58;44.77
21300;BME280;10809;49.476;11.016;2023-04-10T07:53:03;98962.38;;;15.74;44.39
21300;BME280;10809;49.476;11.016;2023-04-10T07:55:42;98958.56;;;15.90;44.55
21300;BME280;10809;49.476;11.016;2023-04-10T07:58:13;98958.28;;;16.07;43.98
21300;BME280;10809;49.476;11.016;2023-04-10T08:00:44;98956.38;;;16.22;43.75
21300;BME280;10809;49.476;11.016;2023-04-10T08:03:15;98956.66;;;16.31;42.43
21300;BME280;10809;49.476;11.016;2023-04-10T08:05:45;98958.81;;;16.39;42.54
21300;BME280;10809;49.476;11.016;2023-04-10T08:08:16;98948.66;;;16.44;42.53
21300;BME280;10809;49.476;11.016;2023-04-10T08:10:52;98946.31;;;16.52;42.42
21300;BME280;10809;49.476;11.016;2023-04-10T08:13:23;98938.91;;;16.56;42.27
21300;BME280;10809;49.476;11.016;2023-04-10T08:15:53;98942.91;;;16.63;41.97
21300;BME280;10809;49.476;11.016;2023-04-10T08:18:24;98953.78;;;16.72;41.68
21300;BME280;10809;49.476;11.016;2023-04-10T08:20:54;98954.31;;;16.77;41.08
21300;BME280;10809;49.476;11.016;2023-04-10T08:23:25;98951.66;;;16.77;40.97
21300;BME280;10809;49.476;11.016;2023-04-10T08:25:55;98949.09;;;16.76;40.65
21300;BME280;10809;49.476;11.016;2023-04-10T08:28:26;98949.31;;;16.73;40.46
21300;BME280;10809;49.476;11.016;2023-04-10T08:30:56;98950.38;;;16.70;40.69
21300;BME280;10809;49.476;11.016;2023-04-10T08:33:33;98943.31;;;16.69;41.15
21300;BME280;10809;49.476;11.016;2023-04-10T08:36:04;98946.09;;;16.68;41.20
21300;BME280;10809;49.476;11.016;2023-04-10T08:38:36;98946.09;;;16.68;40.46
21300;BME280;10809;49.476;11.016;2023-04-10T08:41:09;98943.72;;;16.63;40.27
21300;BME280;10809;49.476;11.016;2023-04-10T08:43:46;98936.13;;;16.57;40.03
21300;BME280;10809;49.476;11.016;2023-04-10T08:46:18;98940.44;;;16.47;39.76
21300;BME280;10809;49.476;11.016;2023-04-10T08:48:57;98937.53;;;16.37;39.85
21300;BME280;10809;49.476;11.016;2023-04-10T08:51:42;98937.84;;;16.33;40.53
21300;BME280;10809;49.476;11.016;2023-04-10T08:54:21;98932.13;;;16.25;40.36
21300;BME280;10809;49.476;11.016;2023-04-10T08:56:54;98930.63;;;16.21;39.97
21300;BME280;10809;49.476;11.016;2023-04-10T08:59:26;98935.31;;;16.17;40.30
21300;BME280;10809;49.476;11.016;2023-04-10T09:02:01;98932.97;;;16.13;40.75
21300;BME280;10809;49.476;11.016;2023-04-10T09:04:35;98935.63;;;16.13;40.79
21300;BME280;10809;49.476;11.016;2023-04-10T09:07:05;98938.31;;;16.13;40.41
21300;BME280;10809;49.476;11.016;2023-04-10T09:09:39;98932.13;;;16.12;40.09
21300;BME280;10809;49.476;11.016;2023-04-10T09:12:11;98926.91;;;16.11;40.32
21300;BME280;10809;49.476;11.016;2023-04-10T09:14:42;98933.19;;;16.10;39.86
21300;BME280;10809;49.476;11.016;2023-04-10T09:17:23;98919.81;;;16.10;40.09
21300;BME280;10809;49.476;11.016;2023-04-10T09:19:54;98919.19;;;16.06;39.90
21300;BME280;10809;49.476;11.016;2023-04-10T09:22:33;98913.09;;;16.04;39.79
21300;BME280;10809;49.476;11.016;2023-04-10T09:25:04;98916.84;;;16.02;39.59
21300;BME280;10809;49.476;11.016;2023-04-10T09:27:35;98916.28;;;15.97;39.52
21300;BME280;10809;49.476;11.016;2023-04-10T09:30:06;98903.88;;;15.96;39.29
21300;BME280;10809;49.476;11.016;2023-04-10T09:32:41;98895.00;;;15.95;39.27
21300;BME280;10809;49.476;11.016;2023-04-10T09:35:13;98901.41;;;15.93;39.00
21300;BME280;10809;49.476;11.016;2023-04-10T09:37:44;98899.81;;;15.90;39.37
21300;BME280;10809;49.476;11.016;2023-04-10T09:40:31;98902.78;;;15.86;39.85
21300;BME280;10809;49.476;11.016;2023-04-10T09:43:19;98891.34;;;15.84;39.96
21300;BME280;10809;49.476;11.016;2023-04-10T09:45:54;98890.63;;;15.82;39.99
21300;BME280;10809;49.476;11.016;2023-04-10T09:48:26;98889.84;;;15.80;39.59
21300;BME280;10809;49.476;11.016;2023-04-10T09:51:00;98896.16;;;15.79;39.58
21300;BME280;10809;49.476;11.016;2023-04-10T09:53:47;98886.53;;;15.76;39.74
21300;BME280;10809;49.476;11.016;2023-04-10T09:56:18;98876.03;;;15.73;39.09
21300;BME280;10809;49.476;11.016;2023-04-10T09:58:50;98864.75;;;15.70;38.88
21300;BME280;10809;49.476;11.016;2023-04-10T10:01:21;98859.59;;;15.67;38.48
21300;BME280;10809;49.476;11.016;2023-04-10T10:03:53;98859.91;;;15.62;38.53
21300;BME280;10809;49.476;11.016;2023-04-10T10:06:24;98854.88;;;15.58;38.49
21300;BME280;10809;49.476;11.016;2023-04-10T10:08:59;98842.69;;;15.54;38.34
21300;BME280;10809;49.476;11.016;2023-04-10T10:11:34;98839.38;;;15.50;38.52
21300;BME280;10809;49.476;11.016;2023-04-10T10:14:12;98837.75;;;15.48;38.37
21300;BME280;10809;49.476;11.016;2023-04-10T10:16:49;98831.75;;;15.44;38.64
21300;BME280;10809;49.476;11.016;2023-04-10T10:19:35;98830.06;;;15.43;39.06
21300;BME280;10809;49.476;11.016;2023-04-10T10:22:08;98832.53;;;15.46;nan
21300;BME280;10809;49.476;11.016;2023-04-10T10:24:44;98827.94;;;15.48;38.99
21300;BME280;10809;49.476;11.016;2023-04-10T10:27:16;98823.25;;;15.52;38.75
21300;BME280;10809;49.476;11.016;2023-04-10T10:29:48;98812.38;;;15.55;38.46
21300;BME280;10809;49.476;11.016;2023-04-10T10:32:20;98800.41;;;15.60;38.46
21300;BME280;10809;49.476;11.016;2023-04-10T10:34:51;98799.25;;;15.64;38.47
21300;BME280;10809;49.476;11.016;2023-04-10T10:37:22;98797.13;;;15.69;38.32
21300;BME280;10809;49.476;11.016;2023-04-10T10:40:02;98794.03;;;15.75;38.29
21300;BME280;10809;49.476;11.016;2023-04-10T10:47:48;98790.63;;;15.86;37.62
21300;BME280;10809;49.476;11.016;2023-04-10T10:50:20;98792.09;;;15.90;38.09
21300;BME280;10809;49.476;11.016;2023-04-10T10:52:52;98791.06;;;15.92;37.43
21300;BME280;10809;49.476;11.016;2023-04-10T10:55:28;98788.16;;;15.95;37.73
21300;BME280;10809;49.476;11.016;2023-04-10T10:58:12;98781.84;;;15.96;37.38
21300;BME280;10809;49.476;11.016;2023-04-10T11:06:04;98774.16;;;16.04;37.30
21300;BME280;10809;49.476;11.016;2023-04-10T11:08:46;98764.03;;;16.09;37.25
21300;BME280;10809;49.476;11.016;2023-04-10T11:11:21;98763.81;;;16.12;37.27
21300;BME280;10809;49.476;11.016;2023-04-10T11:19:10;98747.72;;;16.25;36.71
21300;BME280;10809;49.476;11.016;2023-04-10T11:22:06;98737.72;;;16.28;37.19
21300;BME280;10809;49.476;11.016;2023-04-10T11:25:10;98738.25;;;16.33;37.24
21300;BME280;10809;49.476;11.016;2023-04-10T11:27:46;98736.31;;;16.35;36.90
21300;BME280;10809;49.476;11.016;2023-04-10T11:32:59;98742.94;;;16.42;36.46
21300;BME280;10809;49.476;11.016;2023-04-10T11:35:30;98731.03;;;16.47;36.20
21300;BME280;10809;49.476;11.016;2023-04-10T11:38:08;98733.38;;;16.51;36.52
21300;BME280;10809;49.476;11.016;2023-04-10T11:41:00;98726.88;;;16.55;36.68
21300;BME280;10809;49.476;11.016;2023-04-10T11:43:32;98723.75;;;16.61;36.04
21300;BME280;10809;49.476;11.016;2023-04-10T11:46:07;98715.50;;;16.64;36.13
21300;BME280;10809;49.476;11.016;2023-04-10T11:48:38;98714.28;;;16.68;35.51
21300;BME280;10809;49.476;11.016;2023-04-10T11:51:10;98718.44;;;16.72;35.73
21300;BME280;10809;49.476;11.016;2023-04-10T11:53:41;98697.69;;;16.76;35.07
21300;BME280;10809;49.476;11.016;2023-04-10T11:56:16;98700.13;;;16.79;35.95
21300;BME280;10809;49.476;11.016;2023-04-10T11:58:49;98703.44;;;16.82;35.46
21300;BME280;10809;49.476;11.016;2023-04-10T12:01:22;98697.00;;;16.85;35.61
21300;BME280;10809;49.476;11.016;2023-04-10T12:03:52;98701.25;;;16.87;34.91
21300;BME280;10809;49.476;11.016;2023-04-10T12:06:23;98690.31;;;16.90;35.09
21300;BME280;10809;49.476;11.016;2023-04-10T12:08:54;98697.28;;;16.93;34.83
21300;BME280;10809;49.476;11.016;2023-04-10T12:11:24;98701.66;;;16.94;35.08
21300;BME280;10809;49.476;11.016;2023-04-10T12:14:02;98689.84;;;16.96;35.05
21300;BME280;10809;49.476;11.016;2023-04-10T12:16:36;98697.75;;;16.98;34.42
21300;BME280;10809;49.476;11.016;2023-04-10T12:19:14;98695.84;;;17.00;34.96
21300;BME280;10809;49.476;11.016;2023-04-10T12:21:48;98688.78;;;16.99;34.84
21300;BME280;10809;49.476;11.016;2023-04-10T12:27:26;98680.41;;;17.03;34.89
21300;BME280;10809;49.476;11.016;2023-04-10T12:30:06;98682.97;;;17.05;35.25
21300;BME280;10809;49.476;11.016;2023-04-10T12:32:39;98673.97;;;17.06;34.17
21300;BME280;10809;49.476;11.016;2023-04-10T12:35:10;98678.38;;;17.07;34.20
21300;BME280;10809;49.476;11.016;2023-04-10T12:37:51;98673.84;;;17.07;34.51
21300;BME280;10809;49.476;11.016;2023-04-10T12:40:23;98670.34;;;17.07;34.26
21300;BME280;10809;49.476;11.016;2023-04-10T12:42:53;98659.75;;;17.05;34.13
21300;BME280;10809;49.476;11.016;2023-04-10T12:45:41;98654.53;;;17.04;34.36
21300;BME280;10809;49.476;11.016;2023-04-10T12:48:21;98647.56;;;17.01;33.56
21300;BME280;10809;49.476;11.016;2023-04-10T12:50:52;98638.78;;;16.99;33.70
21300;BME280;10809;49.476;11.016;2023-04-10T12:53:23;98627.25;;;16.99;33.74
21300;BME280;10809;49.476;11.016;2023-04-10T12:56:04;98636.00;;;17.01;34.33
21300;BME280;10809;49.476;11.016;2023-04-10T12:58:38;98632.13;;;17.05;34.00
21300;BME280;10809;49.476;11.016;2023-04-10T13:01:10;98636.38;;;17.07;34.04
21300;BME280;10809;49.476;11.016;2023-04-10T13:03:43;98627.41;;;17.08;33.91
21300;BME280;10809;49.476;11.016;2023-04-10T13:06:15;98622.78;;;17.10;33.29
21300;BME280;10809;49.476;11.016;2023-04-10T13:08:46;98625.34;;;17.12;33.19
21300;BME280;10809;49.476;11.016;2023-04-10T13:11:16;98618.06;;;17.14;33.58
21300;BME280;10809;49.476;11.016;2023-04-10T13:13:48;98620.63;;;17.15;33.46
21300;BME280;10809;49.476;11.016;2023-04-10T13:16:18;98612.50;;;17.17;33.49
21300;BME280;10809;49.476;11.016;2023-04-10T13:18:49;98615.91;;;17.19;33.23
21300;BME280;10809;49.476;11.016;2023-04-10T13:21:20;98614.06;;;17.19;33.26
21300;BME280;10809;49.476;11.016;2023-04-10T13:23:55;98611.38;;;17.19;32.92
21300;BME280;10809;49.476;11.016;2023-04-10T13:26:28;98597.06;;;17.20;33.33
21300;BME280;10809;49.476;11.016;2023-04-10T13:28:59;98591.59;;;17.22;33.48
21300;BME280;10809;49.476;11.016;2023-04-10T13:31:29;98585.25;;;17.23;33.12
21300;BME280;10809;49.476;11.016;2023-04-10T13:34:00;98578.78;;;17.25;33.01
21300;BME280;10809;49.476;11.016;2023-04-10T13:36:30;98578.56;;;17.28;32.98
21300;BME280;10809;49.476;11.016;2023-04-10T13:39:07;98575.50;;;17.33;33.00
21300;BME280;10809;49.476;11.016;2023-04-10T13:41:43;98576.13;;;17.36;33.20
21300;BME280;10809;49.476;11.016;2023-04-10T13:44:20;98566.88;;;17.40;32.77
21300;BME280;10809;49.476;11.016;2023-04-10T13:46:54;98563.97;;;17.43;32.58
21300;BME280;10809;49.476;11.016;2023-04-10T13:49:24;98565.56;;;17.46;32.55
21300;BME280;10809;49.476;11.016;2023-04-10T13:51:56;98561.91;;;17.47;32.45
21300;BME280;10809;49.476;11.016;2023-04-10T13:54:26;98550.31;;;17.46;31.97
21300;BME280;10809;49.476;11.016;2023-04-10T13:56:57;98547.53;;;17.48;32.23
21300;BME280;10809;49.476;11.016;2023-04-10T13:59:28;98531.22;;;17.51;32.47
21300;BME280;10809;49.476;11.016;2023-04-10T14:02:02;98523.81;;;17.54;32.54
21300;BME280;10809;49.476;11.016;2023-04-10T14:04:35;98520.50;;;17.62;32.72
21300;BME280;10809;49.476;11.016;2023-04-10T14:07:09;98524.53;;;17.67;32.49
21300;BME280;10809;49.476;11.016;2023-04-10T14:09:39;98520.50;;;17.73;32.11
21300;BME280;10809;49.476;11.016;2023-04-10T14:12:10;98519.13;;;17.78;32.18